バンダルスリブガワン の空港の天気 - METARとTAF

ブルネイ国際空港 ( WBSB / BWN ) - ブルネイ バンダルスリブガワン
飛行場実況気象(Metar)
観測時間04/26 00:00 +08 (04/25 16:00 UTC)
風向・風速南南東 1m/s
視程10km以上
天気現象
少しの雲 雲底高度 460m
少しの雲 雲底高度 490m
全天の4割程度の雲 雲底高度 4270m
全天の8割程度の雲 雲底高度 8530m
気温26℃
湿度94%
気圧1010hPa
METARWBSB 251600Z 15002KT 9999 FEW015 FEW016CB SCT140 BKN280 26/25 Q1010 RETS NOSIG
過去の天気等 Google飛行場航空写真 Wunderground天気予報

過去48時間のMETAR

飛行場予報(TAF)
発表時間: 4/25 19:00 +08 (4/25 11:00 UTC)
予報対象時間: 25日20時 +08 ~ 27日2時 +08
風向・風速北北西 3m/s
視程10km以上
全天の4割程度の雲 雲底高度 460m
少しの積乱雲 雲底高度 490m
26日0時 +08 ~ 26日4時 +08 に一時的に
視程4,000m
天気現象雷雨
26日4時 +08 ~ 26日6時 +08 に徐々に
風向・風速南南西 1m/s
26日11時 +08 ~ 26日13時 +08 に徐々に
風向・風速北北西 5m/s
少しの雲 雲底高度 490m
少しの積乱雲 雲底高度 520m
TAF WBSB 251100Z 2512/2618 33005KT 9999 SCT015 FEW016CB
TEMPO 2516/2520 4000 TSRA
BECMG 2520/2522 20002KT
BECMG 2603/2605 34010KT FEW016 FEW017CB